Sydney

Airport
ICAO code: 
CYQY
Summary
ICAO Region: 
NAM
Territory: 
Location: 
Sydney, Nova Scotia,
Coordinates: 
Aerial View: 
46° 9' 41.04" N, 60° 2' 52.073" W
Metar
Observation
CYQY 271100Z 17018G28KT 5SM -RA BR OVC004 11/11 A2927 RMK NS8 SLP914 DENSITY ALT 600FT
Station
Sydney, N. S.
Date/Time
2021-11-27 11:00:00
Wind direction
170°
Wind speed
18 kts
Lowest cloud amount
overcast
Temperature
11°C
Dew point
11°C
Humidity
100%
Weather condition
light

Description

International airport serving Sydney, Nova Scotia.

Climatology

Humid Continental climate (Köppen climate classification Dfb) - Variable weather patterns and a large seasonal temperature variance. Summers are often warm and humid with frequent thunderstorms and winters can be very cold with frequent snowfall and persistent snow cover.

Runways

Designator Length Width Surface Rops
1/19 1829 46 ASP Yes/Yes
7/25 2155 61 ASP Yes/Yes
Airport map: 
Aerial View: 

SKYbrary Partners:

Safety knowledge contributed by: